Juan_de_la_cosa — ECJE — position and weather

sailwx.info

Track history (hours):
 
Tides and Currents Weather Stations Pressure Air Temp Water Temp Dewpoint Dewpoint Depression Visibility Wind Speed Wind Dir Waves Ship Positions

Juan_de_la_cosa

Last reported at 2017-Nov-14 15:45 UTC. Time now 2017-Nov-20 04:14 UTC.
Position N 51°12' W 011°10'.

Length 75 m; draft 4.5 m.

Type: SAR. MMSI: 224612000.

Date/timePositionNaut miles runAvg speedWind from/ knotsBaromVisibWave heightAir tempDewpointWater temp
2017-Nov-14 15:45N 51°12' W 011°10'1 5.0
2017-Nov-14 15:30N 51°11' W 011°10'2 5.0
2017-Nov-14 15:00N 51°08' W 011°09'3 5.1
2017-Nov-14 14:19N 51°05' W 011°07'  
2017-Nov-12 09:36N 47°43' W 007°22'1 7.2
2017-Nov-12 09:26N 47°44' W 007°24'5 7.2
2017-Nov-12 08:46N 47°46' W 007°30'  
2017-Nov-06 02:30N 43°31' W 002°34'4 7.6
2017-Nov-06 02:00N 43°32' W 002°39'4 7.6
2017-Nov-06 01:30N 43°33' W 002°44'4 7.2
2017-Nov-06 01:00N 43°33' W 002°49'3 6.9
2017-Nov-06 00:30N 43°33' W 002°54'3 6.9
2017-Nov-06 00:00N 43°33' W 002°59'3 6.9
2017-Nov-05 23:30N 43°33' W 003°03'3 6.9
2017-Nov-05 23:00N 43°33' W 003°08'3 6.7
2017-Nov-05 22:30N 43°33' W 003°13'3 6.6
2017-Nov-05 22:00N 43°33' W 003°17'3 6.8
2017-Nov-05 21:30N 43°34' W 003°22'4 7.1
2017-Nov-05 21:00N 43°34' W 003°27'3 6.9
2017-Nov-05 20:30N 43°34' W 003°32'4 7.3
2017-Nov-05 20:00N 43°34' W 003°37'4 7.3
2017-Nov-05 19:30N 43°34' W 003°42'4 7.0
2017-Nov-05 19:00N 43°34' W 003°47'4 7.3
2017-Nov-05 18:30N 43°34' W 003°52'4 7.4
2017-Nov-05 18:00N 43°35' W 003°57'4 7.4
2017-Nov-05 17:30N 43°35' W 004°02'4 7.4
2017-Nov-05 17:00N 43°36' W 004°07'4 7.7
2017-Nov-05 16:30N 43°36' W 004°12'4 7.6
2017-Nov-05 16:00N 43°36' W 004°17'4 7.5
2017-Nov-05 15:30N 43°37' W 004°22'24 7.5
2017-Nov-05 12:20N 43°40' W 004°55'3 7.6
2017-Nov-05 11:57N 43°40' W 004°59'3 7.6
2017-Nov-05 11:30N 43°40' W 005°04'5 7.3
2017-Nov-05 10:45N 43°41' W 005°11'3 7.2
2017-Nov-05 10:23N 43°41' W 005°15'4 7.3
2017-Nov-05 09:47N 43°42' W 005°21'5 7.2
2017-Nov-05 09:07N 43°42' W 005°28'6 7.4
2017-Nov-05 08:20N 43°43' W 005°36'3 7.7
2017-Nov-05 08:00N 43°43' W 005°39'4 7.5
2017-Nov-05 07:30N 43°43' W 005°44'4 7.0
2017-Nov-05 06:59N 43°44' W 005°49'3 7.1
2017-Nov-05 06:30N 43°44' W 005°54'4 7.0
2017-Nov-05 06:00N 43°45' W 005°59'3 6.7
2017-Nov-05 05:30N 43°45' W 006°03'4 6.8
2017-Nov-05 04:58N 43°45' W 006°08'3 7.0
2017-Nov-05 04:30N 43°45' W 006°13'4 7.0
2017-Nov-05 04:00N 43°46' W 006°18'4 7.2
2017-Nov-05 03:30N 43°46' W 006°23'35 6.9
2017-Nov-04 22:28N 43°49' W 007°11'3 6.8
2017-Nov-04 22:00N 43°49' W 007°15'4 6.6
2017-Nov-04 21:27N 43°50' W 007°20'3 6.6
2017-Nov-04 21:00N 43°50' W 007°24'3 6.3
2017-Nov-04 20:30N 43°51' W 007°28'3 6.1
2017-Nov-04 20:00N 43°51' W 007°33'3 6.2
2017-Nov-04 19:30N 43°51' W 007°37'3 5.8
2017-Nov-04 19:00N 43°52' W 007°41'3 6.3
2017-Nov-04 18:30N 43°51' W 007°36'3 6.6
2017-Nov-04 18:01N 43°51' W 007°32'3 6.6
2017-Nov-04 17:30N 43°51' W 007°27'3 6.8
2017-Nov-04 17:00N 43°50' W 007°23'3 6.7
2017-Nov-04 16:30N 43°50' W 007°18'3 6.5
2017-Nov-04 16:00N 43°49' W 007°14'  
Track history (hours):
 
Tides and Currents Weather Stations Pressure Air Temp Water Temp Dewpoint Dewpoint Depression Visibility Wind Speed Wind Dir Waves Ship Positions

Juan_de_la_cosa

Last reported at 2017-Nov-14 15:45 UTC. Time now 2017-Nov-20 04:14 UTC.
Position N 51°12' W 011°10'.

Length 75 m; draft 4.5 m.

Type: SAR. MMSI: 224612000.

Date/timePositionNaut miles runAvg speedWind from/ knotsBaromVisibWave heightAir tempDewpointWater temp
2017-Nov-14 15:45N 51°12' W 011°10'1 5.0
2017-Nov-14 15:30N 51°11' W 011°10'2 5.0
2017-Nov-14 15:00N 51°08' W 011°09'3 5.1
2017-Nov-14 14:19N 51°05' W 011°07'  
2017-Nov-12 09:36N 47°43' W 007°22'1 7.2
2017-Nov-12 09:26N 47°44' W 007°24'5 7.2
2017-Nov-12 08:46N 47°46' W 007°30'  
2017-Nov-06 02:30N 43°31' W 002°34'4 7.6
2017-Nov-06 02:00N 43°32' W 002°39'4 7.6
2017-Nov-06 01:30N 43°33' W 002°44'4 7.2
2017-Nov-06 01:00N 43°33' W 002°49'3 6.9
2017-Nov-06 00:30N 43°33' W 002°54'3 6.9
2017-Nov-06 00:00N 43°33' W 002°59'3 6.9
2017-Nov-05 23:30N 43°33' W 003°03'3 6.9
2017-Nov-05 23:00N 43°33' W 003°08'3 6.7
2017-Nov-05 22:30N 43°33' W 003°13'3 6.6
2017-Nov-05 22:00N 43°33' W 003°17'3 6.8
2017-Nov-05 21:30N 43°34' W 003°22'4 7.1
2017-Nov-05 21:00N 43°34' W 003°27'3 6.9
2017-Nov-05 20:30N 43°34' W 003°32'4 7.3
2017-Nov-05 20:00N 43°34' W 003°37'4 7.3
2017-Nov-05 19:30N 43°34' W 003°42'4 7.0
2017-Nov-05 19:00N 43°34' W 003°47'4 7.3
2017-Nov-05 18:30N 43°34' W 003°52'4 7.4
2017-Nov-05 18:00N 43°35' W 003°57'4 7.4
2017-Nov-05 17:30N 43°35' W 004°02'4 7.4
2017-Nov-05 17:00N 43°36' W 004°07'4 7.7
2017-Nov-05 16:30N 43°36' W 004°12'4 7.6
2017-Nov-05 16:00N 43°36' W 004°17'4 7.5
2017-Nov-05 15:30N 43°37' W 004°22'24 7.5
2017-Nov-05 12:20N 43°40' W 004°55'3 7.6
2017-Nov-05 11:57N 43°40' W 004°59'3 7.6
2017-Nov-05 11:30N 43°40' W 005°04'5 7.3
2017-Nov-05 10:45N 43°41' W 005°11'3 7.2
2017-Nov-05 10:23N 43°41' W 005°15'4 7.3
2017-Nov-05 09:47N 43°42' W 005°21'5 7.2
2017-Nov-05 09:07N 43°42' W 005°28'6 7.4
2017-Nov-05 08:20N 43°43' W 005°36'3 7.7
2017-Nov-05 08:00N 43°43' W 005°39'4 7.5
2017-Nov-05 07:30N 43°43' W 005°44'4 7.0
2017-Nov-05 06:59N 43°44' W 005°49'3 7.1
2017-Nov-05 06:30N 43°44' W 005°54'4 7.0
2017-Nov-05 06:00N 43°45' W 005°59'3 6.7
2017-Nov-05 05:30N 43°45' W 006°03'4 6.8
2017-Nov-05 04:58N 43°45' W 006°08'3 7.0
2017-Nov-05 04:30N 43°45' W 006°13'4 7.0
2017-Nov-05 04:00N 43°46' W 006°18'4 7.2
2017-Nov-05 03:30N 43°46' W 006°23'35 6.9
2017-Nov-04 22:28N 43°49' W 007°11'3 6.8
2017-Nov-04 22:00N 43°49' W 007°15'4 6.6
2017-Nov-04 21:27N 43°50' W 007°20'3 6.6
2017-Nov-04 21:00N 43°50' W 007°24'3 6.3
2017-Nov-04 20:30N 43°51' W 007°28'3 6.1
2017-Nov-04 20:00N 43°51' W 007°33'3 6.2
2017-Nov-04 19:30N 43°51' W 007°37'3 5.8
2017-Nov-04 19:00N 43°52' W 007°41'3 6.3
2017-Nov-04 18:30N 43°51' W 007°36'3 6.6
2017-Nov-04 18:01N 43°51' W 007°32'3 6.6
2017-Nov-04 17:30N 43°51' W 007°27'3 6.8
2017-Nov-04 17:00N 43°50' W 007°23'3 6.7
2017-Nov-04 16:30N 43°50' W 007°18'3 6.5
2017-Nov-04 16:00N 43°49' W 007°14'  

Dump ship's entire track history